Latest Weather Observations for Weipa

IDQ60801

Issued at 6:02 pm EST Saturday 27 August 2016 (issued every 30 minutes, with the page automatically refreshed every 10 minutes)

About weather observations | Map of weather stations | Latest weather observations for QLD | Other Formats
Station Details ID: 027045 Name: WEIPA AERO Lat: -12.68 Lon: 141.92 Height: 17.96 m
Data from the previous 72 hours. | See also: Recent months at Weipa
Date/Time
EST
Temp
°C
App
Temp
°C
Dew
Point
°C
Rel
Hum
%
Delta-T
°C
Wind Press
QNH
hPa
Press
MSL
hPa
Rain since
9am
mm
Dir  Spd
km/h
Gust
km/h
Spd
kts
Gust
kts
27/06:00pm 26.0 26.6 18.7 64 4.7 W 13 22 7 12 1013.0 1012.9 0.0
27/05:30pm 26.6 27.0 19.1 63 4.8 W 15 22 8 12 1012.9 - 0.0
27/05:00pm 27.4 27.4 19.0 60 5.4 WNW 17 24 9 13 1012.5 - 0.0
27/04:30pm 27.9 27.4 18.7 57 5.9 W 19 28 10 15 1012.1 - 0.0
27/04:00pm 29.3 29.1 18.4 51 7.0 WNW 17 22 9 12 1011.9 - 0.0
27/03:30pm 32.1 32.0 18.8 45 8.7 WNW 17 26 9 14 1011.7 - 0.0
27/03:00pm 32.1 33.9 18.7 45 8.7 WSW 7 15 4 8 1012.0 1011.9 0.0
27/02:30pm 32.4 33.4 18.6 44 9.0 WSW 11 20 6 11 1012.3 - 0.0
27/02:00pm 30.7 31.8 18.9 49 7.7 W 11 20 6 11 1012.9 - 0.0
27/01:30pm 31.4 33.2 18.2 45 8.5 E 6 17 3 9 1013.4 - 0.0
27/01:00pm 32.1 33.2 18.1 43 9.0 E 9 17 5 9 1013.8 - 0.0
27/12:30pm 32.1 33.2 18.0 43 9.1 NNE 9 17 5 9 1014.2 - 0.0
27/12:00pm 31.3 31.4 17.4 43 8.8 NE 13 24 7 13 1014.6 1014.5 0.0
27/11:30am 30.7 31.1 18.1 47 8.1 E 13 24 7 13 1015.0 - 0.0
27/11:00am 29.8 30.4 17.6 48 7.8 E 11 20 6 11 1015.5 - 0.0
27/10:30am 28.8 27.4 15.6 44 8.1 E 17 28 9 15 1015.7 - 0.0
27/10:00am 28.2 27.3 15.9 47 7.6 ESE 15 19 8 10 1015.8 - 0.0
27/09:30am 26.4 26.4 16.3 53 6.2 ESE 11 20 6 11 1015.9 - 0.0
27/09:00am 24.4 24.0 14.0 52 6.1 SE 9 13 5 7 1016.1 1016.0 0.0
27/08:30am 23.4 21.9 12.0 48 6.5 SE 11 15 6 8 1015.9 - 0.0
27/08:00am 22.0 20.8 11.6 51 5.8 SSE 9 19 5 10 1015.8 - 0.0
27/07:30am 21.1 20.5 12.3 57 5.0 SSE 7 11 4 6 1015.7 - 0.0
27/07:00am 20.3 19.7 12.4 60 4.4 SE 7 9 4 5 1015.4 - 0.0
27/06:30am 20.4 19.8 12.3 59 4.5 SSE 7 13 4 7 1015.0 - 0.0
27/06:00am 20.5 20.1 13.1 62 4.2 S 7 13 4 7 1014.5 1014.4 0.0
27/05:30am 20.7 20.1 13.6 64 4.1 S 9 11 5 6 1014.3 - 0.0
27/05:00am 20.8 20.7 14.0 65 3.9 S 7 13 4 7 1014.1 - 0.0
27/04:30am 21.1 21.2 13.8 63 4.2 S 6 11 3 6 1014.2 - 0.0
27/04:00am 21.4 21.0 13.0 58 4.8 S 7 13 4 7 1014.4 - 0.0
27/03:30am 21.6 21.3 12.6 56 5.1 S 6 11 3 6 1014.3 - 0.0
27/03:00am 21.4 21.1 12.8 58 4.9 S 6 11 3 6 1014.3 1014.2 0.0
27/02:30am 20.8 21.5 13.5 63 4.2 S 2 6 1 3 1014.5 - 0.0
27/02:00am 20.5 21.9 14.5 68 3.5 CALM 0 2 0 1 1014.7 - 0.0
27/01:30am 21.4 21.7 13.5 60 4.5 S 4 6 2 3 1014.8 - 0.0
27/01:00am 21.7 23.1 14.5 63 4.2 CALM 0 2 0 1 1015.1 - 0.0
27/12:30am 23.1 23.4 13.4 54 5.6 SSE 4 6 2 3 1015.2 - 0.0
27/12:00am 23.4 23.2 13.1 52 5.9 ESE 6 9 3 5 1015.1 1015.0 0.0
 
Date/Time
EST
Temp
°C
App
Temp
°C
Dew
Point
°C
Rel
Hum
%
Delta-T
°C
Wind Press
QNH
hPa
Press
MSL
hPa
Rain since
9am
mm
Dir  Spd
km/h
Gust
km/h
Spd
kts
Gust
kts
26/11:30pm 22.5 23.1 15.4 64 4.2 E 6 7 3 4 1015.0 - 0.0
26/11:00pm 23.6 24.4 14.9 58 5.2 SSE 4 6 2 3 1014.6 - 0.0
26/10:30pm 23.4 25.0 15.9 62 4.5 ENE 2 6 1 3 1014.5 - 0.0
26/10:00pm 24.8 26.0 15.8 57 5.5 SE 4 6 2 3 1014.2 - 0.0
26/09:30pm 25.3 26.0 15.6 55 5.9 SE 6 7 3 4 1014.0 - 0.0
26/09:00pm 25.9 25.8 14.9 50 6.6 SSE 9 13 5 7 1013.7 1013.6 0.0
26/08:30pm 26.4 26.3 14.9 49 6.9 S 9 17 5 9 1013.1 - 0.0
26/08:00pm 26.2 26.6 16.4 54 6.0 SSW 9 19 5 10 1012.7 - 0.0
26/07:30pm 26.4 27.0 16.9 56 5.9 SSW 9 15 5 8 1012.3 - 0.0
26/07:00pm 27.2 27.9 17.1 54 6.3 SSW 9 19 5 10 1011.8 - 0.0
26/06:30pm 28.2 28.0 16.6 49 7.2 SW 13 20 7 11 1011.3 - 0.0
26/06:00pm 30.0 30.0 16.3 43 8.6 SW 11 20 6 11 1010.8 1010.7 0.0
26/05:30pm 31.1 31.0 16.1 40 9.4 SW 11 20 6 11 1010.5 - 0.0
26/05:00pm 30.9 31.0 17.4 44 8.6 WSW 13 22 7 12 1010.3 - 0.0
26/04:30pm 31.7 31.7 17.2 42 9.2 W 13 24 7 13 1010.2 - 0.0
26/04:00pm 31.8 31.8 17.3 42 9.2 WSW 13 24 7 13 1010.1 - 0.0
26/03:30pm 32.1 31.4 17.3 41 9.4 W 17 26 9 14 1010.0 - 0.0
26/03:00pm 32.9 33.5 17.7 40 9.8 WSW 11 20 6 11 1010.3 1010.2 0.0
26/02:30pm 33.0 32.2 15.2 34 11.0 SW 13 22 7 12 1010.7 - 0.0
26/02:00pm 32.6 31.5 15.2 35 10.8 SW 15 24 8 13 1011.0 - 0.0
26/01:30pm 32.5 32.0 15.8 36 10.4 SSW 13 22 7 12 1011.4 - 0.0
26/01:00pm 31.8 30.8 15.6 37 10.1 SSW 15 24 8 13 1012.0 - 0.0
26/12:30pm 31.1 30.4 15.5 39 9.7 SW 13 22 7 12 1012.3 - 0.0
26/12:00pm 30.5 29.9 15.6 40 9.2 SW 13 22 7 12 1012.8 1012.7 0.0
26/11:30am 30.2 30.1 16.1 42 8.8 SSW 11 22 6 12 1013.2 - 0.0
26/11:00am 29.9 29.9 16.2 43 8.5 SSE 11 19 6 10 1013.7 - 0.0
26/10:30am 28.7 28.2 16.0 46 7.9 S 13 20 7 11 1014.1 - 0.0
26/10:00am 27.7 27.6 16.9 51 6.7 S 13 19 7 10 1014.4 - 0.0
26/09:30am 26.5 26.9 17.2 56 5.8 S 11 19 6 10 1014.7 - 0.0
26/09:00am 25.4 25.8 17.2 60 5.1 SSE 11 19 6 10 1014.6 1014.5 0.0
26/08:30am 24.9 25.9 17.8 64 4.5 SSE 9 19 5 10 1014.5 - 0.0
26/08:00am 24.6 26.0 18.6 69 3.8 S 9 15 5 8 1014.1 - 0.0
26/07:30am 23.8 26.2 19.6 77 2.7 S 6 7 3 4 1013.9 - 0.0
26/07:00am 23.2 26.5 19.9 82 2.1 SSE 2 4 1 2 1013.5 - 0.0
26/06:30am 23.5 26.3 19.7 79 2.4 SSE 4 7 2 4 1013.1 - 0.0
26/06:00am 23.9 26.9 20.0 79 2.5 S 4 7 2 4 1012.6 1012.5 0.0
26/05:30am 24.1 26.7 20.0 78 2.7 S 6 11 3 6 1012.3 - 0.0
26/05:00am 24.3 26.6 19.9 76 2.8 S 7 13 4 7 1012.0 - 0.0
26/04:30am 24.5 26.9 20.0 76 2.9 S 7 13 4 7 1012.0 - 0.0
26/04:00am 24.6 27.3 20.2 76 2.9 SSE 6 11 3 6 1012.0 - 0.0
26/03:30am 24.7 26.9 20.3 76 2.9 S 9 15 5 8 1012.1 - 0.0
26/03:00am 24.7 27.1 20.8 79 2.6 S 9 15 5 8 1012.2 1012.1 0.0
26/02:30am 24.8 27.9 21.0 79 2.5 S 6 9 3 5 1012.2 - 0.0
26/02:00am 24.8 28.5 21.4 81 2.2 S 4 6 2 3 1012.4 - 0.0
26/01:30am 24.8 28.7 21.8 83 2.0 S 4 7 2 4 1012.4 - 0.0
26/01:00am 25.0 28.9 21.9 83 2.1 SSE 4 6 2 3 1012.5 - 0.0
26/12:30am 25.2 29.1 21.9 82 2.2 SSW 4 6 2 3 1012.6 - 0.0
26/12:00am 25.2 29.0 21.7 81 2.3 S 4 7 2 4 1012.7 1012.6 0.0
 
Date/Time
EST
Temp
°C
App
Temp
°C
Dew
Point
°C
Rel
Hum
%
Delta-T
°C
Wind Press
QNH
hPa
Press
MSL
hPa
Rain since
9am
mm
Dir  Spd
km/h
Gust
km/h
Spd
kts
Gust
kts
25/11:30pm 25.4 28.8 21.6 79 2.5 S 6 9 3 5 1012.8 - 0.0
25/11:00pm 25.1 28.6 21.8 82 2.2 S 6 9 3 5 1012.8 - 0.0
25/10:30pm 25.2 29.4 21.8 81 2.3 S 2 6 1 3 1012.8 - 0.0
25/10:00pm 25.4 29.6 21.8 80 2.4 SSE 2 4 1 2 1012.4 - 0.0
25/09:30pm 25.6 29.0 21.7 79 2.6 SSW 6 11 3 6 1011.9 - 0.0
25/09:00pm 25.9 29.1 21.3 76 3.0 SW 6 13 3 7 1011.6 1011.5 0.0
25/08:30pm 26.1 28.6 21.1 74 3.3 SW 9 17 5 9 1011.2 - 0.0
25/08:00pm 26.3 28.8 21.0 72 3.5 SW 9 20 5 11 1010.9 - 0.0
25/07:30pm 26.6 29.3 21.3 72 3.5 SW 9 19 5 10 1010.5 - 0.0
25/07:00pm 26.6 30.1 22.2 77 3.0 WSW 7 17 4 9 1010.1 - 0.0
25/06:30pm 26.7 29.6 21.8 74 3.3 W 9 22 5 12 1009.7 - 0.0
25/06:00pm 27.0 29.4 20.9 69 4.0 W 9 17 5 9 1009.4 1009.3 0.0
25/05:30pm 28.4 30.3 20.5 62 5.2 WSW 11 24 6 13 1009.1 - 0.0
25/05:00pm 28.8 30.0 19.9 58 5.8 WSW 13 26 7 14 1008.9 - 0.0
25/04:30pm 29.1 30.4 19.4 55 6.3 W 11 19 6 10 1008.6 - 0.0
25/04:00pm 29.7 29.6 18.8 52 7.0 W 17 26 9 14 1008.5 - 0.0
25/03:30pm 29.4 29.9 20.0 57 6.2 W 17 26 9 14 1008.5 - 0.0
25/03:00pm 30.2 31.2 21.0 58 6.2 W 17 28 9 15 1008.6 1008.5 0.0
25/02:30pm 30.5 31.5 20.3 54 6.7 W 15 26 8 14 1009.0 - 0.0
25/02:00pm 31.4 32.8 20.3 51 7.4 WSW 13 26 7 14 1009.2 - 0.0
25/01:30pm 31.1 30.6 18.6 47 8.1 W 19 28 10 15 1009.5 - 0.0
25/01:00pm 31.3 32.0 19.6 49 7.7 W 15 22 8 12 1009.8 - 0.0
25/12:30pm 30.9 31.6 18.8 48 7.9 W 13 19 7 10 1010.1 - 0.0
25/12:00pm 31.0 31.5 17.5 44 8.6 WSW 11 17 6 9 1010.4 1010.3 0.0
25/11:30am 30.4 32.1 19.3 51 7.2 SW 9 17 5 9 1010.9 - 0.0
25/11:00am 29.8 32.4 20.1 56 6.4 SSW 6 15 3 8 1011.4 - 0.0
25/10:30am 29.5 31.4 18.6 52 7.0 SSE 6 11 3 6 1011.9 - 0.0
25/10:00am 28.4 31.0 20.0 60 5.5 S 6 11 3 6 1012.2 - 0.0
25/09:30am 27.1 30.2 21.1 69 4.0 SSE 6 9 3 5 1012.3 - 0.0
25/09:00am 25.9 29.0 21.4 76 3.0 SE 7 11 4 6 1012.3 1012.2 0.0
25/08:30am 24.8 28.2 22.0 84 1.9 SSE 7 11 4 6 1012.2 - 0.0
25/08:00am 23.1 27.0 21.8 92 0.9 SSE 4 6 2 3 1012.0 - 0.0
25/07:30am 22.2 26.6 21.4 95 0.5 CALM 0 2 0 1 1012.0 - 0.0
25/07:00am 21.7 25.7 20.6 93 0.7 CALM 0 0 0 0 1011.6 - 0.0
25/06:30am 21.7 25.8 20.7 94 0.6 CALM 0 0 0 0 1011.5 - 0.0
25/06:00am 21.5 25.5 20.6 95 0.6 CALM 0 4 0 2 1011.3 1011.2 0.0
25/05:30am 21.6 24.8 20.5 93 0.7 ESE 4 6 2 3 1011.0 - 0.0
25/05:00am 21.7 25.8 20.7 94 0.6 CALM 0 0 0 0 1010.9 - 0.0
25/04:30am 21.7 25.7 20.6 93 0.7 CALM 0 0 0 0 1010.7 - 0.0
25/04:00am 21.9 26.0 20.8 93 0.7 CALM 0 0 0 0 1010.6 - 0.0
25/03:30am 21.9 26.0 20.8 93 0.7 CALM 0 0 0 0 1010.6 - 0.0
25/03:00am 22.2 26.6 21.3 95 0.6 CALM 0 0 0 0 1010.7 1010.6 0.0
25/02:30am 22.3 26.7 21.3 94 0.7 CALM 0 0 0 0 1010.7 - 0.0
25/02:00am 22.3 26.7 21.3 94 0.7 CALM 0 2 0 1 1010.9 - 0.0
25/01:30am 23.0 27.6 21.7 92 0.9 CALM 0 0 0 0 1011.2 - 0.0
25/01:00am 23.4 28.1 22.0 92 0.9 CALM 0 0 0 0 1011.3 - 0.0
25/12:30am 23.5 27.2 22.2 92 0.9 ENE 6 7 3 4 1011.7 - 0.0
25/12:00am 24.2 28.7 22.3 89 1.3 S 2 4 1 2 1011.9 1011.8 0.0
 
Date/Time
EST
Temp
°C
App
Temp
°C
Dew
Point
°C
Rel
Hum
%
Delta-T
°C
Wind Press
QNH
hPa
Press
MSL
hPa
Rain since
9am
mm
Dir  Spd
km/h
Gust
km/h
Spd
kts
Gust
kts
24/11:30pm 24.4 28.3 22.5 89 1.3 S 6 9 3 5 1012.0 - 0.0
24/11:00pm 24.8 28.7 22.6 87 1.5 ESE 6 7 3 4 1012.3 - 0.0
24/10:30pm 25.1 28.9 22.7 86 1.6 SE 7 9 4 5 1012.4 - 0.0
24/10:00pm 25.1 29.1 22.7 86 1.6 E 6 7 3 4 1012.2 - 0.0
24/09:34pm 25.1 29.1 22.8 87 1.6 E 6 7 3 4 1012.0 - 0.0
24/09:30pm 25.1 29.1 22.8 87 1.6 E 6 7 3 4 1012.0 - 0.0
24/09:00pm 25.3 29.2 22.9 86 1.6 E 7 9 4 5 1011.7 1011.6 0.0
24/08:44pm 25.3 29.4 23.0 87 1.6 ENE 6 9 3 5 1011.5 - 0.0
24/08:30pm 25.1 29.6 23.0 88 1.4 WSW 4 11 2 6 1011.0 - 0.0
24/08:00pm 25.2 29.0 22.8 86 1.6 WSW 7 11 4 6 1010.4 - 0.0
24/07:30pm 25.4 29.4 22.7 85 1.8 W 6 13 3 7 1010.0 - 0.0
24/07:00pm 25.5 28.9 22.7 84 1.9 W 9 17 5 9 1009.5 - 0.0
24/06:30pm 25.8 28.8 22.7 83 2.1 W 11 20 6 11 1009.2 - 0.0

Other Formats:

Comma delimited format used in spreadsheet applications
http://www.bom.gov.au/fwo/IDQ60801/IDQ60801.94170.axf

JavaScript Object Notation format (JSON) in row-major order
http://www.bom.gov.au/fwo/IDQ60801/IDQ60801.94170.json